HALF-HOURLY OBSERVATIONS INDEX

096

Central Plateau

BUTLERS GORGE

Site: 096003
Alt: 667.0m
16km SSE of DERWENT BRIDGE


  Time     Wind        Temp  DP   Baro     Rain since   Rain past  Vis(m), Cloud(base in m), Weather
  local        km/h                         9am  last   hr   10m    
Mon 11:00  WNW  7/ 17   9.9  2.5  ------    0.0   0.0   0.0   0.0   ----- 
Mon 11:30  WSW  9/ 19   9.9  0.3  ------    0.0   0.0   0.0   0.0   ----- 
Mon 12:00  WSW 13/ 22  10.6  1.9  ------    0.0   0.0   0.0   0.0   ----- 
Mon 12:30  WSW 13/ 20  10.7  2.0  ------    0.0   0.0   0.0   0.0   ----- 
Mon 13:00   SW 11/ 17  11.6  2.6  ------    0.0   0.0   0.0   0.0   ----- 
Mon 13:30  WNW  9/ 15  12.6  2.7  ------    0.0   0.0   0.0   0.0   ----- 
Mon 14:00   SW 11/ 19  13.3  2.8  ------    0.0   0.0   0.0   0.0   ----- 
Mon 14:30  WSW 11/ 24  12.7  2.8  ------    0.0   0.0   0.0   0.0   ----- 
Mon 15:00    W  6/ 17  13.0  2.6  ------    0.0   0.0   0.0   0.0   ----- 
Mon 15:30  WNW  9/ 15  14.3  3.2  ------    0.0   0.0   0.0   0.0   ----- 
Mon 16:00    S  7/ 15  14.1  3.8  ------    0.0   0.0   0.0   0.0   ----- 
Mon 16:30   NW 13/ 20  14.3  2.9  ------    0.0   0.0   0.0   0.0   ----- 

LIAWENEE

Site: 096033
Alt: 1057.0m
42km S of DELORAINE


  Time     Wind        Temp  DP   Baro     Rain since   Rain past  Vis(m), Cloud(base in m), Weather
  local        km/h                         9am  last   hr   10m    
Mon 11:00   SW 17/ 24   8.4  1.8  1018.8    0.0   0.0   0.0   0.0   ----- 
Mon 11:30   SW 19/ 28   9.5  1.4  1018.8    0.0   0.0   0.0   0.0   ----- 
Mon 12:00    S 19/ 28  10.3  1.7  1019.2    0.0   0.0   0.0   0.0   ----- 
Mon 12:30   SW 13/ 26  11.4  1.4  1019.4    0.0   0.0   0.0   0.0   ----- 
Mon 13:00    S  9/ 19  12.2  2.9  1019.3    0.0   0.0   0.0   0.0   ----- 
Mon 13:30    S 13/ 20  12.3  1.3  1019.5    0.0   0.0   0.0   0.0   ----- 
Mon 14:00  SSW 13/ 20  13.0  2.6  1019.5    0.0   0.0   0.0   0.0   ----- 
Mon 14:30   SW 13/ 20  13.5  0.2  1019.7    0.0   0.0   0.0   0.0   ----- 
Mon 15:00  SSW  9/ 20  14.5  3.6  1019.6    0.0   0.0   0.0   0.0   ----- 
Mon 15:30  SSE 11/ 24  14.6  3.1  1019.6    0.0   0.0   0.0   0.0   ----- 
Mon 16:00  WSW 13/ 20  15.5  3.6  1019.4    0.0   0.0   0.0   0.0   ----- 
Mon 16:30  SSW 20/ 28  15.8  3.3  1019.3    0.0   0.0   0.0   0.0   -----